sensor_id;sensor_type;location;lat;lon;timestamp;pressure;altitude;pressure_sealevel;temperature;humidity
62710;BME280;48770;51.624;5.886;2023-04-20T00:01:23;102099.63;;;21.82;32.04
62710;BME280;48770;51.624;5.886;2023-04-20T00:03:48;102099.97;;;21.81;31.70
62710;BME280;48770;51.624;5.886;2023-04-20T00:06:14;102098.00;;;21.81;32.13
62710;BME280;48770;51.624;5.886;2023-04-20T00:08:39;102096.03;;;21.82;31.94
62710;BME280;48770;51.624;5.886;2023-04-20T00:11:05;102088.00;;;21.80;32.00
62710;BME280;48770;51.624;5.886;2023-04-20T00:13:30;102088.00;;;21.80;31.79
62710;BME280;48770;51.624;5.886;2023-04-20T00:15:55;102078.03;;;21.79;32.20
62710;BME280;48770;51.624;5.886;2023-04-20T00:18:21;102073.59;;;21.78;32.07
62710;BME280;48770;51.624;5.886;2023-04-20T00:20:46;102068.03;;;21.78;31.82
62710;BME280;48770;51.624;5.886;2023-04-20T00:23:11;102065.59;;;21.77;31.96
62710;BME280;48770;51.624;5.886;2023-04-20T00:25:37;102058.06;;;21.77;31.75
62710;BME280;48770;51.624;5.886;2023-04-20T00:28:02;102048.88;;;21.77;31.89
62710;BME280;48770;51.624;5.886;2023-04-20T00:30:27;102052.81;;;21.76;31.67
62710;BME280;48770;51.624;5.886;2023-04-20T00:32:53;102041.69;;;21.76;31.92
62710;BME280;48770;51.624;5.886;2023-04-20T00:35:18;102038.91;;;21.76;32.12
62710;BME280;48770;51.624;5.886;2023-04-20T00:37:43;102040.88;;;21.75;32.05
62710;BME280;48770;51.624;5.886;2023-04-20T00:40:09;102034.47;;;21.75;31.72
62710;BME280;48770;51.624;5.886;2023-04-20T00:42:36;102035.28;;;21.75;32.06
62710;BME280;48770;51.624;5.886;2023-04-20T00:45:02;102028.09;;;21.74;31.63
62710;BME280;48770;51.624;5.886;2023-04-20T00:47:27;102028.09;;;21.74;31.81
62710;BME280;48770;51.624;5.886;2023-04-20T00:49:53;102023.66;;;21.73;31.83
62710;BME280;48770;51.624;5.886;2023-04-20T00:52:18;102025.63;;;21.73;32.10
62710;BME280;48770;51.624;5.886;2023-04-20T00:54:45;102020.88;;;21.73;31.56
62710;BME280;48770;51.624;5.886;2023-04-20T00:57:12;102017.63;;;21.71;31.79
62710;BME280;48770;51.624;5.886;2023-04-20T00:59:38;102012.06;;;21.71;31.66
62710;BME280;48770;51.624;5.886;2023-04-20T01:02:03;102004.53;;;21.72;32.07
62710;BME280;48770;51.624;5.886;2023-04-20T01:04:29;101997.31;;;21.71;31.71
62710;BME280;48770;51.624;5.886;2023-04-20T01:06:55;101993.72;;;21.70;31.76
62710;BME280;48770;51.624;5.886;2023-04-20T01:09:21;101993.72;;;21.70;31.53
62710;BME280;48770;51.624;5.886;2023-04-20T01:11:46;101999.28;;;21.70;31.92
62710;BME280;48770;51.624;5.886;2023-04-20T01:14:11;101980.94;;;21.69;31.81
62710;BME280;48770;51.624;5.886;2023-04-20T01:16:37;101986.50;;;21.69;31.95
62710;BME280;48770;51.624;5.886;2023-04-20T01:19:02;101978.16;;;21.69;31.62
62710;BME280;48770;51.624;5.886;2023-04-20T01:21:28;101970.16;;;21.68;31.66
62710;BME280;48770;51.624;5.886;2023-04-20T01:23:53;101971.78;;;21.69;31.56
62710;BME280;48770;51.624;5.886;2023-04-20T01:26:19;101964.59;;;21.68;31.82
62710;BME280;48770;51.624;5.886;2023-04-20T01:28:45;101960.97;;;21.67;31.95
62710;BME280;48770;51.624;5.886;2023-04-20T01:31:11;101957.38;;;21.67;32.01
62710;BME280;48770;51.624;5.886;2023-04-20T01:33:37;101953.78;;;21.66;31.64
62710;BME280;48770;51.624;5.886;2023-04-20T01:36:04;101948.22;;;21.66;31.93
62710;BME280;48770;51.624;5.886;2023-04-20T01:38:29;101936.59;;;21.64;31.88
62710;BME280;48770;51.624;5.886;2023-04-20T01:40:57;101934.63;;;21.65;31.58
62710;BME280;48770;51.624;5.886;2023-04-20T01:43:23;101933.00;;;21.64;31.40
62710;BME280;48770;51.624;5.886;2023-04-20T01:45:49;101924.66;;;21.64;31.87
62710;BME280;48770;51.624;5.886;2023-04-20T01:48:14;101933.00;;;21.64;31.78
62710;BME280;48770;51.624;5.886;2023-04-20T01:50:40;101929.41;;;21.63;31.76
62710;BME280;48770;51.624;5.886;2023-04-20T01:53:05;101917.78;;;21.61;31.57
62710;BME280;48770;51.624;5.886;2023-04-20T01:55:30;101917.25;;;21.59;32.02
62710;BME280;48770;51.624;5.886;2023-04-20T01:57:56;101914.47;;;21.59;31.41
62710;BME280;48770;51.624;5.886;2023-04-20T02:00:23;101914.19;;;21.61;31.78
62710;BME280;48770;51.624;5.886;2023-04-20T02:02:48;101912.84;;;21.58;31.46
62710;BME280;48770;51.624;5.886;2023-04-20T02:05:14;101912.84;;;21.58;31.90
62710;BME280;48770;51.624;5.886;2023-04-20T02:07:39;101906.47;;;21.58;31.83
62710;BME280;48770;51.624;5.886;2023-04-20T02:10:05;101919.56;;;21.57;31.49
62710;BME280;48770;51.624;5.886;2023-04-20T02:12:30;101910.41;;;21.57;31.53
62710;BME280;48770;51.624;5.886;2023-04-20T02:14:56;101915.97;;;21.57;31.83
62710;BME280;48770;51.624;5.886;2023-04-20T02:17:21;101916.28;;;21.55;31.73
62710;BME280;48770;51.624;5.886;2023-04-20T02:19:46;101905.50;;;21.53;31.91
62710;BME280;48770;51.624;5.886;2023-04-20T02:22:12;101906.31;;;21.54;31.71
62710;BME280;48770;51.624;5.886;2023-04-20T02:24:37;101907.13;;;21.54;31.74
62710;BME280;48770;51.624;5.886;2023-04-20T02:27:03;101905.50;;;21.53;31.62
62710;BME280;48770;51.624;5.886;2023-04-20T02:29:29;101904.69;;;21.53;31.62
62710;BME280;48770;51.624;5.886;2023-04-20T02:31:54;101895.50;;;21.52;31.81
62710;BME280;48770;51.624;5.886;2023-04-20T02:34:30;101895.50;;;21.52;31.82
62710;BME280;48770;51.624;5.886;2023-04-20T02:36:55;101884.72;;;21.51;31.64
62710;BME280;48770;51.624;5.886;2023-04-20T02:39:21;101897.00;;;21.50;31.71
62710;BME280;48770;51.624;5.886;2023-04-20T02:41:46;101894.22;;;21.50;31.83
62710;BME280;48770;51.624;5.886;2023-04-20T02:44:11;101883.41;;;21.48;31.56
62710;BME280;48770;51.624;5.886;2023-04-20T02:46:37;101875.88;;;21.49;31.57
62710;BME280;48770;51.624;5.886;2023-04-20T02:49:02;101867.88;;;21.47;31.64
62710;BME280;48770;51.624;5.886;2023-04-20T02:51:27;101870.66;;;21.47;31.89
62710;BME280;48770;51.624;5.886;2023-04-20T02:53:53;101860.66;;;21.46;31.83
62710;BME280;48770;51.624;5.886;2023-04-20T02:56:18;101854.28;;;21.46;31.76
62710;BME280;48770;51.624;5.886;2023-04-20T02:58:46;101854.28;;;21.46;31.82
62710;BME280;48770;51.624;5.886;2023-04-20T03:01:12;101848.72;;;21.46;31.69
62710;BME280;48770;51.624;5.886;2023-04-20T03:03:38;101851.84;;;21.44;31.76
62710;BME280;48770;51.624;5.886;2023-04-20T03:06:03;101850.69;;;21.45;31.89
62710;BME280;48770;51.624;5.886;2023-04-20T03:08:28;101851.03;;;21.44;31.54
62710;BME280;48770;51.624;5.886;2023-04-20T03:10:54;101835.16;;;21.44;31.66
62710;BME280;48770;51.624;5.886;2023-04-20T03:13:20;101845.47;;;21.44;31.63
62710;BME280;48770;51.624;5.886;2023-04-20T03:15:45;101841.88;;;21.43;31.38
62710;BME280;48770;51.624;5.886;2023-04-20T03:18:10;101843.00;;;21.42;31.77
62710;BME280;48770;51.624;5.886;2023-04-20T03:20:36;101841.03;;;21.43;31.61
62710;BME280;48770;51.624;5.886;2023-04-20T03:23:01;101830.25;;;21.41;31.60
62710;BME280;48770;51.624;5.886;2023-04-20T03:25:27;101832.22;;;21.41;31.71
62710;BME280;48770;51.624;5.886;2023-04-20T03:27:53;101833.03;;;21.41;31.47
62710;BME280;48770;51.624;5.886;2023-04-20T03:30:19;101823.88;;;21.41;31.84
62710;BME280;48770;51.624;5.886;2023-04-20T03:32:44;101827.81;;;21.40;31.55
62710;BME280;48770;51.624;5.886;2023-04-20T03:35:10;101826.16;;;21.39;31.49
62710;BME280;48770;51.624;5.886;2023-04-20T03:37:36;101827.31;;;21.38;31.68
62710;BME280;48770;51.624;5.886;2023-04-20T03:40:01;101822.56;;;21.38;31.74
62710;BME280;48770;51.624;5.886;2023-04-20T03:42:27;101818.16;;;21.37;31.68
62710;BME280;48770;51.624;5.886;2023-04-20T03:44:54;101825.34;;;21.38;31.87
62710;BME280;48770;51.624;5.886;2023-04-20T03:47:19;101819.66;;;21.35;31.55
62710;BME280;48770;51.624;5.886;2023-04-20T03:49:44;101832.41;;;21.36;31.53
62710;BME280;48770;51.624;5.886;2023-04-20T03:52:10;101818.50;;;21.36;31.62
62710;BME280;48770;51.624;5.886;2023-04-20T03:54:35;101813.25;;;21.34;31.74
62710;BME280;48770;51.624;5.886;2023-04-20T03:57:00;101814.09;;;21.35;31.72
62710;BME280;48770;51.624;5.886;2023-04-20T03:59:26;101812.41;;;21.34;31.84
62710;BME280;48770;51.624;5.886;2023-04-20T04:01:51;101812.41;;;21.34;31.73
62710;BME280;48770;51.624;5.886;2023-04-20T04:04:17;101803.59;;;21.32;32.02
62710;BME280;48770;51.624;5.886;2023-04-20T04:06:42;101798.84;;;21.32;31.88
62710;BME280;48770;51.624;5.886;2023-04-20T04:09:07;101792.47;;;21.32;32.04
62710;BME280;48770;51.624;5.886;2023-04-20T04:11:33;101781.34;;;21.32;32.01
62710;BME280;48770;51.624;5.886;2023-04-20T04:13:58;101784.13;;;21.32;32.03
62710;BME280;48770;51.624;5.886;2023-04-20T04:16:24;101779.69;;;21.31;31.66
62710;BME280;48770;51.624;5.886;2023-04-20T04:18:50;101782.47;;;21.31;31.83
62710;BME280;48770;51.624;5.886;2023-04-20T04:21:15;101768.56;;;21.31;31.77
62710;BME280;48770;51.624;5.886;2023-04-20T04:23:40;101759.75;;;21.29;31.79
62710;BME280;48770;51.624;5.886;2023-04-20T04:26:07;101772.50;;;21.30;31.76
62710;BME280;48770;51.624;5.886;2023-04-20T04:28:32;101770.06;;;21.28;31.94
62710;BME280;48770;51.624;5.886;2023-04-20T04:30:57;101770.06;;;21.28;31.79
62710;BME280;48770;51.624;5.886;2023-04-20T04:33:25;101759.28;;;21.27;31.99
62710;BME280;48770;51.624;5.886;2023-04-20T04:35:51;101769.25;;;21.28;31.82
62710;BME280;48770;51.624;5.886;2023-04-20T04:38:17;101757.31;;;21.27;32.04
62710;BME280;48770;51.624;5.886;2023-04-20T04:40:43;101757.31;;;21.27;31.98
62710;BME280;48770;51.624;5.886;2023-04-20T04:43:10;101751.75;;;21.27;31.90
62710;BME280;48770;51.624;5.886;2023-04-20T04:45:37;101760.41;;;21.26;31.67
62710;BME280;48770;51.624;5.886;2023-04-20T04:48:04;101758.44;;;21.26;31.91
62710;BME280;48770;51.624;5.886;2023-04-20T04:50:30;101756.81;;;21.25;31.99
62710;BME280;48770;51.624;5.886;2023-04-20T04:52:55;101750.44;;;21.24;31.67
62710;BME280;48770;51.624;5.886;2023-04-20T04:55:20;101748.81;;;21.23;32.07
62710;BME280;48770;51.624;5.886;2023-04-20T04:57:46;101746.03;;;21.23;31.73
62710;BME280;48770;51.624;5.886;2023-04-20T05:00:12;101752.41;;;21.24;31.84
62710;BME280;48770;51.624;5.886;2023-04-20T05:02:37;101746.03;;;21.23;31.90
62710;BME280;48770;51.624;5.886;2023-04-20T05:05:03;101744.38;;;21.22;32.06
62710;BME280;48770;51.624;5.886;2023-04-20T05:07:28;101754.38;;;21.23;31.92
62710;BME280;48770;51.624;5.886;2023-04-20T05:09:54;101749.94;;;21.22;31.98
62710;BME280;48770;51.624;5.886;2023-04-20T05:12:19;101749.94;;;21.22;32.19
62710;BME280;48770;51.624;5.886;2023-04-20T05:14:44;101749.44;;;21.20;31.98
62710;BME280;48770;51.624;5.886;2023-04-20T05:17:10;101753.03;;;21.21;32.13
62710;BME280;48770;51.624;5.886;2023-04-20T05:19:35;101757.78;;;21.20;32.02
62710;BME280;48770;51.624;5.886;2023-04-20T05:22:01;101744.69;;;21.21;32.11
62710;BME280;48770;51.624;5.886;2023-04-20T05:24:26;101746.66;;;21.20;31.78
62710;BME280;48770;51.624;5.886;2023-04-20T05:26:51;101756.16;;;21.19;31.93
62710;BME280;48770;51.624;5.886;2023-04-20T05:29:17;101751.41;;;21.20;32.07
62710;BME280;48770;51.624;5.886;2023-04-20T05:31:42;101741.09;;;21.20;32.06
62710;BME280;48770;51.624;5.886;2023-04-20T05:34:09;101737.50;;;21.20;31.93
62710;BME280;48770;51.624;5.886;2023-04-20T05:36:34;101735.06;;;21.18;31.98
62710;BME280;48770;51.624;5.886;2023-04-20T05:38:59;101735.06;;;21.18;32.18
62710;BME280;48770;51.624;5.886;2023-04-20T05:41:25;101735.06;;;21.18;32.26
62710;BME280;48770;51.624;5.886;2023-04-20T05:43:54;101732.28;;;21.18;32.05
62710;BME280;48770;51.624;5.886;2023-04-20T05:46:20;101743.06;;;21.20;32.05
62710;BME280;48770;51.624;5.886;2023-04-20T05:48:46;101740.63;;;21.18;31.95
62710;BME280;48770;51.624;5.886;2023-04-20T05:51:11;101732.28;;;21.18;32.11
62710;BME280;48770;51.624;5.886;2023-04-20T05:53:37;101739.00;;;21.17;31.99
62710;BME280;48770;51.624;5.886;2023-04-20T05:56:02;101742.59;;;21.18;31.96
62710;BME280;48770;51.624;5.886;2023-04-20T05:58:29;101737.84;;;21.18;32.09
62710;BME280;48770;51.624;5.886;2023-04-20T06:00:56;101743.41;;;21.18;32.25
62710;BME280;48770;51.624;5.886;2023-04-20T06:03:22;101737.84;;;21.18;32.07
62710;BME280;48770;51.624;5.886;2023-04-20T06:05:47;101744.56;;;21.17;32.22
62710;BME280;48770;51.624;5.886;2023-04-20T06:08:12;101745.72;;;21.16;31.96
62710;BME280;48770;51.624;5.886;2023-04-20T06:10:38;101734.59;;;21.16;32.42
62710;BME280;48770;51.624;5.886;2023-04-20T06:13:03;101734.59;;;21.16;32.40
62710;BME280;48770;51.624;5.886;2023-04-20T06:15:28;101742.09;;;21.16;32.41
62710;BME280;48770;51.624;5.886;2023-04-20T06:17:53;101751.28;;;21.16;32.16
62710;BME280;48770;51.624;5.886;2023-04-20T06:20:19;101739.31;;;21.16;32.32
62710;BME280;48770;51.624;5.886;2023-04-20T06:22:45;101730.16;;;21.15;32.47
62710;BME280;48770;51.624;5.886;2023-04-20T06:25:11;101736.53;;;21.16;32.21
62710;BME280;48770;51.624;5.886;2023-04-20T06:27:37;101732.13;;;21.15;32.16
62710;BME280;48770;51.624;5.886;2023-04-20T06:30:03;101722.63;;;21.16;32.10
62710;BME280;48770;51.624;5.886;2023-04-20T06:32:29;101727.38;;;21.15;32.17
62710;BME280;48770;51.624;5.886;2023-04-20T06:34:54;101736.53;;;21.16;32.29
62710;BME280;48770;51.624;5.886;2023-04-20T06:37:20;101729.34;;;21.15;32.20
62710;BME280;48770;51.624;5.886;2023-04-20T06:39:45;101730.50;;;21.14;32.55
62710;BME280;48770;51.624;5.886;2023-04-20T06:42:10;101740.47;;;21.15;32.52
62710;BME280;48770;51.624;5.886;2023-04-20T06:44:36;101734.91;;;21.15;32.26
62710;BME280;48770;51.624;5.886;2023-04-20T06:47:01;101730.50;;;21.14;32.38
62710;BME280;48770;51.624;5.886;2023-04-20T06:49:26;101741.28;;;21.15;32.40
62710;BME280;48770;51.624;5.886;2023-04-20T06:51:52;101737.69;;;21.15;32.21
62710;BME280;48770;51.624;5.886;2023-04-20T06:54:17;101737.69;;;21.15;32.17
62710;BME280;48770;51.624;5.886;2023-04-20T06:56:42;101724.13;;;21.13;32.35
62710;BME280;48770;51.624;5.886;2023-04-20T06:59:08;101725.75;;;21.14;32.49
62710;BME280;48770;51.624;5.886;2023-04-20T07:01:33;101732.47;;;21.13;32.61
62710;BME280;48770;51.624;5.886;2023-04-20T07:03:58;101721.34;;;21.13;32.68
62710;BME280;48770;51.624;5.886;2023-04-20T07:06:24;101719.38;;;21.14;32.60
62710;BME280;48770;51.624;5.886;2023-04-20T07:08:49;101725.75;;;21.14;32.46
62710;BME280;48770;51.624;5.886;2023-04-20T07:11:15;101726.56;;;21.15;32.36
62710;BME280;48770;51.624;5.886;2023-04-20T07:13:40;101711.84;;;21.14;32.67
62710;BME280;48770;51.624;5.886;2023-04-20T07:16:06;101724.59;;;21.15;32.51
62710;BME280;48770;51.624;5.886;2023-04-20T07:18:31;101725.44;;;21.16;32.28
62710;BME280;48770;51.624;5.886;2023-04-20T07:20:57;101729.03;;;21.16;32.78
62710;BME280;48770;51.624;5.886;2023-04-20T07:23:22;101721.50;;;21.17;32.38
62710;BME280;48770;51.624;5.886;2023-04-20T07:25:47;101725.09;;;21.17;32.48
62710;BME280;48770;51.624;5.886;2023-04-20T07:28:13;101723.47;;;21.16;32.71
62710;BME280;48770;51.624;5.886;2023-04-20T07:30:38;101716.75;;;21.17;32.66
62710;BME280;48770;51.624;5.886;2023-04-20T07:33:03;101719.53;;;21.17;32.84
62710;BME280;48770;51.624;5.886;2023-04-20T07:35:29;101712.81;;;21.18;32.69
62710;BME280;48770;51.624;5.886;2023-04-20T07:37:54;101724.75;;;21.19;32.59
62710;BME280;48770;51.624;5.886;2023-04-20T07:40:20;101728.34;;;21.19;32.51
62710;BME280;48770;51.624;5.886;2023-04-20T07:42:45;101719.53;;;21.17;32.35
62710;BME280;48770;51.624;5.886;2023-04-20T07:45:11;101722.78;;;21.19;32.57
62710;BME280;48770;51.624;5.886;2023-04-20T07:47:37;101728.34;;;21.19;32.82
62710;BME280;48770;51.624;5.886;2023-04-20T07:50:04;101723.59;;;21.20;32.76
62710;BME280;48770;51.624;5.886;2023-04-20T07:52:30;101721.97;;;21.19;32.78
62710;BME280;48770;51.624;5.886;2023-04-20T07:54:55;101732.28;;;21.18;32.76
62710;BME280;48770;51.624;5.886;2023-04-20T07:57:27;101733.09;;;21.19;32.57
62710;BME280;48770;51.624;5.886;2023-04-20T07:59:53;101725.56;;;21.19;32.83
62710;BME280;48770;51.624;5.886;2023-04-20T08:02:18;101725.09;;;21.17;32.60
62710;BME280;48770;51.624;5.886;2023-04-20T08:04:43;101727.88;;;21.17;32.98
62710;BME280;48770;51.624;5.886;2023-04-20T08:07:10;101749.78;;;21.19;32.59
62710;BME280;48770;51.624;5.886;2023-04-20T08:09:36;101726.72;;;21.18;32.79
62710;BME280;48770;51.624;5.886;2023-04-20T08:12:01;101732.28;;;21.18;32.82
62710;BME280;48770;51.624;5.886;2023-04-20T08:14:27;101726.72;;;21.18;32.65
62710;BME280;48770;51.624;5.886;2023-04-20T08:16:52;101719.53;;;21.17;32.64
62710;BME280;48770;51.624;5.886;2023-04-20T08:19:18;101727.88;;;21.17;32.42
62710;BME280;48770;51.624;5.886;2023-04-20T08:21:43;101713.16;;;21.17;32.51
62710;BME280;48770;51.624;5.886;2023-04-20T08:24:08;101718.72;;;21.17;32.41
62710;BME280;48770;51.624;5.886;2023-04-20T08:26:34;101717.91;;;21.16;31.84
62710;BME280;48770;51.624;5.886;2023-04-20T08:29:00;101715.94;;;21.17;32.24
62710;BME280;48770;51.624;5.886;2023-04-20T08:31:27;101717.09;;;21.16;32.02
62710;BME280;48770;51.624;5.886;2023-04-20T08:33:52;101714.63;;;21.14;31.82
62710;BME280;48770;51.624;5.886;2023-04-20T08:36:17;101722.97;;;21.14;31.95
62710;BME280;48770;51.624;5.886;2023-04-20T08:38:43;101701.88;;;21.13;32.02
62710;BME280;48770;51.624;5.886;2023-04-20T08:41:09;101713.00;;;21.13;31.33
62710;BME280;48770;51.624;5.886;2023-04-20T08:43:37;101709.06;;;21.14;31.67
62710;BME280;48770;51.624;5.886;2023-04-20T08:46:03;101704.66;;;21.13;31.57
62710;BME280;48770;51.624;5.886;2023-04-20T08:48:33;101706.63;;;21.13;30.92
62710;BME280;48770;51.624;5.886;2023-04-20T08:51:01;101697.00;;;21.10;30.55
62710;BME280;48770;51.624;5.886;2023-04-20T08:53:28;101707.94;;;21.07;30.29
62710;BME280;48770;51.624;5.886;2023-04-20T08:55:53;101699.94;;;21.05;30.36
62710;BME280;48770;51.624;5.886;2023-04-20T08:58:21;101700.59;;;21.02;30.25
62710;BME280;48770;51.624;5.886;2023-04-20T09:00:48;101693.41;;;21.01;30.45
62710;BME280;48770;51.624;5.886;2023-04-20T09:03:13;101697.34;;;21.00;30.58
62710;BME280;48770;51.624;5.886;2023-04-20T09:05:38;101701.25;;;20.99;30.59
62710;BME280;48770;51.624;5.886;2023-04-20T09:08:04;101690.16;;;20.99;30.77
62710;BME280;48770;51.624;5.886;2023-04-20T09:10:43;101694.06;;;20.98;30.78
62710;BME280;48770;51.624;5.886;2023-04-20T09:13:20;101688.50;;;20.98;30.77
62710;BME280;48770;51.624;5.886;2023-04-20T09:15:45;101698.00;;;20.97;31.00
62710;BME280;48770;51.624;5.886;2023-04-20T09:18:12;101696.03;;;20.98;31.07
62710;BME280;48770;51.624;5.886;2023-04-20T09:20:41;101689.66;;;20.97;31.13
62710;BME280;48770;51.624;5.886;2023-04-20T09:23:11;101696.03;;;20.98;31.31
62710;BME280;48770;51.624;5.886;2023-04-20T09:25:36;101681.31;;;20.97;31.18
62710;BME280;48770;51.624;5.886;2023-04-20T09:28:02;101684.09;;;20.97;31.29
62710;BME280;48770;51.624;5.886;2023-04-20T09:30:45;101685.25;;;20.96;31.63
62710;BME280;48770;51.624;5.886;2023-04-20T09:33:11;101674.81;;;20.93;31.28
62710;BME280;48770;51.624;5.886;2023-04-20T09:35:38;101672.50;;;20.95;31.52
62710;BME280;48770;51.624;5.886;2023-04-20T09:38:07;101675.28;;;20.95;31.72
62710;BME280;48770;51.624;5.886;2023-04-20T09:40:33;101670.53;;;20.96;31.50
62710;BME280;48770;51.624;5.886;2023-04-20T09:43:08;101671.69;;;20.94;31.71
62710;BME280;48770;51.624;5.886;2023-04-20T09:45:35;101666.94;;;20.95;31.84
62710;BME280;48770;51.624;5.886;2023-04-20T09:48:04;101663.00;;;20.96;31.90
62710;BME280;48770;51.624;5.886;2023-04-20T09:50:31;101673.31;;;20.96;31.60
62710;BME280;48770;51.624;5.886;2023-04-20T09:52:56;101675.75;;;20.97;31.71
62710;BME280;48770;51.624;5.886;2023-04-20T09:55:22;101678.22;;;20.99;31.75
62710;BME280;48770;51.624;5.886;2023-04-20T09:57:49;101673.47;;;20.99;31.96
62710;BME280;48770;51.624;5.886;2023-04-20T10:00:15;101664.31;;;20.99;31.69
62710;BME280;48770;51.624;5.886;2023-04-20T10:02:45;101670.69;;;20.99;32.13
62710;BME280;48770;51.624;5.886;2023-04-20T10:05:11;101666.75;;;21.00;31.88
62710;BME280;48770;51.624;5.886;2023-04-20T10:07:36;101662.34;;;20.99;31.88
62710;BME280;48770;51.624;5.886;2023-04-20T10:10:09;101669.06;;;20.98;32.13
62710;BME280;48770;51.624;5.886;2023-04-20T10:12:49;101661.88;;;20.97;32.07
62710;BME280;48770;51.624;5.886;2023-04-20T10:15:15;101653.84;;;20.96;32.00
62710;BME280;48770;51.624;5.886;2023-04-20T10:17:41;101657.44;;;20.96;32.17
62710;BME280;48770;51.624;5.886;2023-04-20T10:20:17;101651.88;;;20.96;32.01
62710;BME280;48770;51.624;5.886;2023-04-20T10:22:43;101651.88;;;20.96;32.23
62710;BME280;48770;51.624;5.886;2023-04-20T10:25:17;101647.47;;;20.95;32.10
62710;BME280;48770;51.624;5.886;2023-04-20T10:27:58;101636.34;;;20.95;32.30
62710;BME280;48770;51.624;5.886;2023-04-20T10:30:25;101640.78;;;20.96;32.43
62710;BME280;48770;51.624;5.886;2023-04-20T10:33:20;101632.28;;;20.92;32.29
62710;BME280;48770;51.624;5.886;2023-04-20T10:35:49;101636.34;;;20.95;32.23
62710;BME280;48770;51.624;5.886;2023-04-20T10:38:26;101629.66;;;20.96;32.47
62710;BME280;48770;51.624;5.886;2023-04-20T10:40:53;101628.03;;;20.95;32.21
62710;BME280;48770;51.624;5.886;2023-04-20T10:43:19;101618.53;;;20.96;32.37
62710;BME280;48770;51.624;5.886;2023-04-20T10:45:45;101626.88;;;20.96;32.53
62710;BME280;48770;51.624;5.886;2023-04-20T10:48:11;101623.28;;;20.96;32.37
62710;BME280;48770;51.624;5.886;2023-04-20T10:50:37;101622.47;;;20.95;32.59
62710;BME280;48770;51.624;5.886;2023-04-20T10:53:03;101620.50;;;20.96;32.13
62710;BME280;48770;51.624;5.886;2023-04-20T10:55:29;101616.09;;;20.94;32.40
62710;BME280;48770;51.624;5.886;2023-04-20T10:57:55;101620.84;;;20.94;32.66
62710;BME280;48770;51.624;5.886;2023-04-20T11:00:26;101618.06;;;20.94;32.46
62710;BME280;48770;51.624;5.886;2023-04-20T11:02:55;101612.81;;;20.92;32.57
62710;BME280;48770;51.624;5.886;2023-04-20T11:05:23;101613.63;;;20.93;32.32
62710;BME280;48770;51.624;5.886;2023-04-20T11:07:52;101606.44;;;20.92;32.31
62710;BME280;48770;51.624;5.886;2023-04-20T11:10:19;101613.63;;;20.93;32.49
62710;BME280;48770;51.624;5.886;2023-04-20T11:12:45;101612.81;;;20.92;32.60
62710;BME280;48770;51.624;5.886;2023-04-20T11:15:10;101613.16;;;20.91;32.56
62710;BME280;48770;51.624;5.886;2023-04-20T11:17:37;101604.00;;;20.90;32.39
62710;BME280;48770;51.624;5.886;2023-04-20T11:20:13;101604.81;;;20.91;32.72
62710;BME280;48770;51.624;5.886;2023-04-20T11:22:41;101600.41;;;20.90;32.58
62710;BME280;48770;51.624;5.886;2023-04-20T11:25:08;101609.56;;;20.90;32.76
62710;BME280;48770;51.624;5.886;2023-04-20T11:27:35;101609.56;;;20.90;32.48
62710;BME280;48770;51.624;5.886;2023-04-20T11:30:01;101607.13;;;20.89;32.57
62710;BME280;48770;51.624;5.886;2023-04-20T11:32:33;101605.50;;;20.88;32.71
62710;BME280;48770;51.624;5.886;2023-04-20T11:35:03;101606.31;;;20.88;32.63
62710;BME280;48770;51.624;5.886;2023-04-20T11:37:31;101611.72;;;20.85;32.82
62710;BME280;48770;51.624;5.886;2023-04-20T11:40:02;101619.72;;;20.86;32.67
62710;BME280;48770;51.624;5.886;2023-04-20T11:42:30;101613.69;;;20.84;32.71
62710;BME280;48770;51.624;5.886;2023-04-20T11:44:55;101601.41;;;20.85;32.63
62710;BME280;48770;51.624;5.886;2023-04-20T11:47:21;101601.41;;;20.85;32.82
62710;BME280;48770;51.624;5.886;2023-04-20T11:49:47;101600.28;;;20.86;32.78
62710;BME280;48770;51.624;5.886;2023-04-20T11:52:12;101601.09;;;20.87;32.53
62710;BME280;48770;51.624;5.886;2023-04-20T11:54:37;101593.91;;;20.86;32.88
62710;BME280;48770;51.624;5.886;2023-04-20T11:57:03;101578.84;;;20.87;32.52
62710;BME280;48770;51.624;5.886;2023-04-20T11:59:28;101578.50;;;20.88;32.64
62710;BME280;48770;51.624;5.886;2023-04-20T12:01:54;101572.63;;;20.90;32.75
62710;BME280;48770;51.624;5.886;2023-04-20T12:04:19;101567.06;;;20.90;32.76
62710;BME280;48770;51.624;5.886;2023-04-20T12:06:45;101570.31;;;20.92;32.67
62710;BME280;48770;51.624;5.886;2023-04-20T12:09:11;101562.78;;;20.92;32.89
62710;BME280;48770;51.624;5.886;2023-04-20T12:11:37;101568.00;;;20.94;32.83
62710;BME280;48770;51.624;5.886;2023-04-20T12:14:02;101550.19;;;20.95;32.74
62710;BME280;48770;51.624;5.886;2023-04-20T12:16:29;101554.59;;;20.96;33.02
62710;BME280;48770;51.624;5.886;2023-04-20T12:18:54;101559.34;;;20.96;32.88
62710;BME280;48770;51.624;5.886;2023-04-20T12:21:20;101560.63;;;20.98;32.88
62710;BME280;48770;51.624;5.886;2023-04-20T12:23:45;101561.44;;;20.99;33.06
62710;BME280;48770;51.624;5.886;2023-04-20T12:26:13;101567.81;;;20.99;32.88
62710;BME280;48770;51.624;5.886;2023-04-20T12:28:38;101556.34;;;21.01;32.97
62710;BME280;48770;51.624;5.886;2023-04-20T12:31:04;101550.47;;;21.02;32.96
62710;BME280;48770;51.624;5.886;2023-04-20T12:33:29;101565.66;;;21.05;32.78
62710;BME280;48770;51.624;5.886;2023-04-20T12:35:55;101548.16;;;21.04;32.90
62710;BME280;48770;51.624;5.886;2023-04-20T12:38:20;101549.31;;;21.03;33.05
62710;BME280;48770;51.624;5.886;2023-04-20T12:40:46;101548.16;;;21.04;32.57
62710;BME280;48770;51.624;5.886;2023-04-20T12:43:11;101552.09;;;21.03;33.04
62710;BME280;48770;51.624;5.886;2023-04-20T12:45:36;101551.28;;;21.03;32.88